sensor_id;sensor_type;location;lat;lon;timestamp;P1;durP1;ratioP1;P2;durP2;ratioP2
76423;SDS011;65257;52.104;4.268;2023-07-31T00:01:00;27.67;;;5.15;;
76423;SDS011;65257;52.104;4.268;2023-07-31T00:03:25;40.00;;;7.07;;
76423;SDS011;65257;52.104;4.268;2023-07-31T00:05:51;42.88;;;7.95;;
76423;SDS011;65257;52.104;4.268;2023-07-31T00:08:17;44.40;;;8.88;;
76423;SDS011;65257;52.104;4.268;2023-07-31T00:10:42;33.75;;;7.13;;
76423;SDS011;65257;52.104;4.268;2023-07-31T00:13:08;40.88;;;7.43;;
76423;SDS011;65257;52.104;4.268;2023-07-31T00:15:33;22.63;;;5.75;;
76423;SDS011;65257;52.104;4.268;2023-07-31T00:17:58;24.65;;;5.07;;
76423;SDS011;65257;52.104;4.268;2023-07-31T00:20:24;29.83;;;5.32;;
76423;SDS011;65257;52.104;4.268;2023-07-31T00:22:49;25.38;;;6.25;;
76423;SDS011;65257;52.104;4.268;2023-07-31T00:25:15;26.30;;;6.95;;
76423;SDS011;65257;52.104;4.268;2023-07-31T00:27:40;19.42;;;4.82;;
76423;SDS011;65257;52.104;4.268;2023-07-31T00:30:09;20.55;;;5.13;;
76423;SDS011;65257;52.104;4.268;2023-07-31T00:32:35;23.27;;;5.10;;
76423;SDS011;65257;52.104;4.268;2023-07-31T00:35:01;29.92;;;6.80;;
76423;SDS011;65257;52.104;4.268;2023-07-31T00:37:26;22.23;;;6.13;;
76423;SDS011;65257;52.104;4.268;2023-07-31T00:39:52;23.27;;;4.93;;
76423;SDS011;65257;52.104;4.268;2023-07-31T00:42:20;30.27;;;6.22;;
76423;SDS011;65257;52.104;4.268;2023-07-31T00:44:47;20.75;;;5.90;;
76423;SDS011;65257;52.104;4.268;2023-07-31T00:47:12;33.13;;;5.25;;
76423;SDS011;65257;52.104;4.268;2023-07-31T00:49:38;21.92;;;5.20;;
76423;SDS011;65257;52.104;4.268;2023-07-31T00:52:03;21.80;;;5.80;;
76423;SDS011;65257;52.104;4.268;2023-07-31T00:54:31;30.00;;;5.63;;
76423;SDS011;65257;52.104;4.268;2023-07-31T00:56:57;20.75;;;5.55;;
76423;SDS011;65257;52.104;4.268;2023-07-31T00:59:22;25.00;;;6.38;;
76423;SDS011;65257;52.104;4.268;2023-07-31T01:01:48;28.17;;;6.00;;
76423;SDS011;65257;52.104;4.268;2023-07-31T01:04:14;29.98;;;7.30;;
76423;SDS011;65257;52.104;4.268;2023-07-31T01:06:58;23.05;;;6.20;;
76423;SDS011;65257;52.104;4.268;2023-07-31T01:12:03;27.98;;;6.93;;
76423;SDS011;65257;52.104;4.268;2023-07-31T01:14:32;25.98;;;6.38;;
76423;SDS011;65257;52.104;4.268;2023-07-31T01:17:01;29.48;;;6.43;;
76423;SDS011;65257;52.104;4.268;2023-07-31T01:19:29;21.42;;;5.43;;
76423;SDS011;65257;52.104;4.268;2023-07-31T01:27:53;24.02;;;6.18;;
76423;SDS011;65257;52.104;4.268;2023-07-31T01:30:41;25.20;;;5.50;;
76423;SDS011;65257;52.104;4.268;2023-07-31T01:33:12;23.20;;;5.72;;
76423;SDS011;65257;52.104;4.268;2023-07-31T01:35:42;21.67;;;5.75;;
76423;SDS011;65257;52.104;4.268;2023-07-31T01:38:14;21.02;;;5.68;;
76423;SDS011;65257;52.104;4.268;2023-07-31T01:40:42;27.45;;;6.72;;
76423;SDS011;65257;52.104;4.268;2023-07-31T01:43:10;23.50;;;5.30;;
76423;SDS011;65257;52.104;4.268;2023-07-31T01:45:38;25.05;;;5.00;;
76423;SDS011;65257;52.104;4.268;2023-07-31T01:48:04;22.98;;;5.45;;
76423;SDS011;65257;52.104;4.268;2023-07-31T01:50:29;26.67;;;5.97;;
76423;SDS011;65257;52.104;4.268;2023-07-31T01:52:55;26.52;;;5.80;;
76423;SDS011;65257;52.104;4.268;2023-07-31T01:55:23;21.98;;;5.50;;
76423;SDS011;65257;52.104;4.268;2023-07-31T01:57:48;26.13;;;6.70;;
76423;SDS011;65257;52.104;4.268;2023-07-31T02:00:14;24.05;;;5.70;;
76423;SDS011;65257;52.104;4.268;2023-07-31T02:02:40;29.58;;;5.50;;
76423;SDS011;65257;52.104;4.268;2023-07-31T02:05:05;25.20;;;6.30;;
76423;SDS011;65257;52.104;4.268;2023-07-31T02:07:31;24.92;;;5.72;;
76423;SDS011;65257;52.104;4.268;2023-07-31T02:09:56;24.40;;;5.03;;
76423;SDS011;65257;52.104;4.268;2023-07-31T02:12:22;21.55;;;5.32;;
76423;SDS011;65257;52.104;4.268;2023-07-31T02:14:50;24.92;;;5.47;;
76423;SDS011;65257;52.104;4.268;2023-07-31T02:17:16;26.27;;;5.97;;
76423;SDS011;65257;52.104;4.268;2023-07-31T02:19:45;28.17;;;5.88;;
76423;SDS011;65257;52.104;4.268;2023-07-31T02:22:11;23.58;;;5.45;;
76423;SDS011;65257;52.104;4.268;2023-07-31T02:24:37;29.85;;;7.10;;
76423;SDS011;65257;52.104;4.268;2023-07-31T02:27:05;22.33;;;5.38;;
76423;SDS011;65257;52.104;4.268;2023-07-31T02:29:31;24.63;;;5.15;;
76423;SDS011;65257;52.104;4.268;2023-07-31T02:31:59;27.33;;;5.55;;
76423;SDS011;65257;52.104;4.268;2023-07-31T02:34:24;22.73;;;5.40;;
76423;SDS011;65257;52.104;4.268;2023-07-31T02:36:49;26.25;;;5.55;;
76423;SDS011;65257;52.104;4.268;2023-07-31T02:39:16;24.75;;;5.32;;
76423;SDS011;65257;52.104;4.268;2023-07-31T02:41:42;27.33;;;6.05;;
76423;SDS011;65257;52.104;4.268;2023-07-31T02:44:07;23.13;;;6.18;;
76423;SDS011;65257;52.104;4.268;2023-07-31T02:46:33;26.30;;;5.55;;
76423;SDS011;65257;52.104;4.268;2023-07-31T02:48:58;27.73;;;5.38;;
76423;SDS011;65257;52.104;4.268;2023-07-31T02:51:23;21.42;;;6.22;;
76423;SDS011;65257;52.104;4.268;2023-07-31T02:53:52;28.63;;;5.95;;
76423;SDS011;65257;52.104;4.268;2023-07-31T02:56:17;25.58;;;5.50;;
76423;SDS011;65257;52.104;4.268;2023-07-31T02:58:43;31.58;;;6.65;;
76423;SDS011;65257;52.104;4.268;2023-07-31T03:01:17;26.00;;;6.75;;
76423;SDS011;65257;52.104;4.268;2023-07-31T03:03:45;33.17;;;7.68;;
76423;SDS011;65257;52.104;4.268;2023-07-31T03:06:11;28.90;;;5.63;;
76423;SDS011;65257;52.104;4.268;2023-07-31T03:08:36;33.15;;;6.70;;
76423;SDS011;65257;52.104;4.268;2023-07-31T03:11:02;36.50;;;6.60;;
76423;SDS011;65257;52.104;4.268;2023-07-31T03:13:27;23.30;;;5.80;;
76423;SDS011;65257;52.104;4.268;2023-07-31T03:15:53;38.97;;;5.75;;
76423;SDS011;65257;52.104;4.268;2023-07-31T03:18:18;24.60;;;5.78;;
76423;SDS011;65257;52.104;4.268;2023-07-31T03:20:43;20.42;;;5.20;;
76423;SDS011;65257;52.104;4.268;2023-07-31T03:23:09;23.02;;;5.53;;
76423;SDS011;65257;52.104;4.268;2023-07-31T03:25:35;27.45;;;5.95;;
76423;SDS011;65257;52.104;4.268;2023-07-31T03:28:00;25.90;;;6.68;;
76423;SDS011;65257;52.104;4.268;2023-07-31T03:30:30;33.72;;;7.25;;
76423;SDS011;65257;52.104;4.268;2023-07-31T03:32:55;24.50;;;6.13;;
76423;SDS011;65257;52.104;4.268;2023-07-31T03:35:20;38.92;;;6.18;;
76423;SDS011;65257;52.104;4.268;2023-07-31T03:37:46;24.83;;;5.40;;
76423;SDS011;65257;52.104;4.268;2023-07-31T03:40:12;24.92;;;4.97;;
76423;SDS011;65257;52.104;4.268;2023-07-31T03:42:37;23.17;;;4.88;;
76423;SDS011;65257;52.104;4.268;2023-07-31T03:45:06;18.02;;;4.40;;
76423;SDS011;65257;52.104;4.268;2023-07-31T03:47:34;14.13;;;3.55;;
76423;SDS011;65257;52.104;4.268;2023-07-31T03:50:02;20.65;;;3.88;;
76423;SDS011;65257;52.104;4.268;2023-07-31T03:52:28;14.43;;;3.83;;
76423;SDS011;65257;52.104;4.268;2023-07-31T03:54:54;18.25;;;3.92;;
76423;SDS011;65257;52.104;4.268;2023-07-31T03:57:20;18.10;;;3.90;;
76423;SDS011;65257;52.104;4.268;2023-07-31T03:59:45;13.70;;;3.85;;
76423;SDS011;65257;52.104;4.268;2023-07-31T04:02:10;15.82;;;3.70;;
76423;SDS011;65257;52.104;4.268;2023-07-31T04:04:36;9.93;;;3.03;;
76423;SDS011;65257;52.104;4.268;2023-07-31T04:07:01;18.13;;;3.83;;
76423;SDS011;65257;52.104;4.268;2023-07-31T04:09:29;9.55;;;2.92;;
76423;SDS011;65257;52.104;4.268;2023-07-31T04:11:54;9.55;;;2.20;;
76423;SDS011;65257;52.104;4.268;2023-07-31T04:14:20;15.00;;;2.88;;
76423;SDS011;65257;52.104;4.268;2023-07-31T04:16:45;10.98;;;3.13;;
76423;SDS011;65257;52.104;4.268;2023-07-31T04:19:10;23.23;;;3.20;;
76423;SDS011;65257;52.104;4.268;2023-07-31T04:21:36;13.55;;;2.33;;
76423;SDS011;65257;52.104;4.268;2023-07-31T04:24:04;10.98;;;2.90;;
76423;SDS011;65257;52.104;4.268;2023-07-31T04:26:29;14.63;;;2.72;;
76423;SDS011;65257;52.104;4.268;2023-07-31T04:28:55;17.02;;;2.42;;
76423;SDS011;65257;52.104;4.268;2023-07-31T04:31:23;23.02;;;3.70;;
76423;SDS011;65257;52.104;4.268;2023-07-31T04:33:49;28.58;;;5.57;;
76423;SDS011;65257;52.104;4.268;2023-07-31T04:36:14;17.77;;;3.40;;
76423;SDS011;65257;52.104;4.268;2023-07-31T04:38:39;22.42;;;3.53;;
76423;SDS011;65257;52.104;4.268;2023-07-31T04:41:06;34.78;;;3.45;;
76423;SDS011;65257;52.104;4.268;2023-07-31T04:43:31;28.25;;;4.00;;
76423;SDS011;65257;52.104;4.268;2023-07-31T04:45:57;32.22;;;3.85;;
76423;SDS011;65257;52.104;4.268;2023-07-31T04:48:23;23.05;;;3.45;;
76423;SDS011;65257;52.104;4.268;2023-07-31T04:50:48;14.20;;;3.15;;
76423;SDS011;65257;52.104;4.268;2023-07-31T04:53:17;24.20;;;4.88;;
76423;SDS011;65257;52.104;4.268;2023-07-31T04:55:46;23.15;;;3.95;;
76423;SDS011;65257;52.104;4.268;2023-07-31T04:58:12;22.77;;;4.45;;
76423;SDS011;65257;52.104;4.268;2023-07-31T05:00:40;16.73;;;3.80;;
76423;SDS011;65257;52.104;4.268;2023-07-31T05:03:05;12.55;;;2.97;;
76423;SDS011;65257;52.104;4.268;2023-07-31T05:05:31;13.55;;;2.35;;
76423;SDS011;65257;52.104;4.268;2023-07-31T05:07:57;27.55;;;5.15;;
76423;SDS011;65257;52.104;4.268;2023-07-31T05:10:22;22.77;;;3.70;;
76423;SDS011;65257;52.104;4.268;2023-07-31T05:12:47;16.70;;;3.20;;
76423;SDS011;65257;52.104;4.268;2023-07-31T05:15:13;23.80;;;4.10;;
76423;SDS011;65257;52.104;4.268;2023-07-31T05:17:39;15.95;;;3.03;;
76423;SDS011;65257;52.104;4.268;2023-07-31T05:20:04;18.83;;;4.28;;
76423;SDS011;65257;52.104;4.268;2023-07-31T05:22:33;19.65;;;4.13;;
76423;SDS011;65257;52.104;4.268;2023-07-31T05:27:32;15.40;;;3.22;;
76423;SDS011;65257;52.104;4.268;2023-07-31T05:29:58;20.95;;;3.80;;
76423;SDS011;65257;52.104;4.268;2023-07-31T05:32:23;22.20;;;4.13;;
76423;SDS011;65257;52.104;4.268;2023-07-31T05:34:52;14.38;;;3.40;;
76423;SDS011;65257;52.104;4.268;2023-07-31T05:37:18;23.23;;;3.67;;
76423;SDS011;65257;52.104;4.268;2023-07-31T05:39:50;14.00;;;2.80;;
76423;SDS011;65257;52.104;4.268;2023-07-31T05:42:21;17.10;;;3.70;;
76423;SDS011;65257;52.104;4.268;2023-07-31T05:44:46;14.50;;;3.20;;
76423;SDS011;65257;52.104;4.268;2023-07-31T05:47:12;17.10;;;3.22;;
76423;SDS011;65257;52.104;4.268;2023-07-31T05:49:37;16.90;;;2.20;;
76423;SDS011;65257;52.104;4.268;2023-07-31T05:52:03;17.95;;;2.85;;
76423;SDS011;65257;52.104;4.268;2023-07-31T05:54:33;23.70;;;3.58;;
76423;SDS011;65257;52.104;4.268;2023-07-31T05:56:58;16.98;;;3.38;;
76423;SDS011;65257;52.104;4.268;2023-07-31T05:59:24;18.10;;;3.42;;
76423;SDS011;65257;52.104;4.268;2023-07-31T06:01:50;28.95;;;4.05;;
76423;SDS011;65257;52.104;4.268;2023-07-31T06:04:15;24.50;;;4.10;;
76423;SDS011;65257;52.104;4.268;2023-07-31T06:06:41;19.85;;;5.05;;
76423;SDS011;65257;52.104;4.268;2023-07-31T06:09:06;27.90;;;3.90;;
76423;SDS011;65257;52.104;4.268;2023-07-31T06:11:32;19.13;;;3.40;;
76423;SDS011;65257;52.104;4.268;2023-07-31T06:13:58;25.52;;;4.45;;
76423;SDS011;65257;52.104;4.268;2023-07-31T06:16:27;32.42;;;5.68;;
76423;SDS011;65257;52.104;4.268;2023-07-31T06:18:52;37.97;;;6.30;;
76423;SDS011;65257;52.104;4.268;2023-07-31T06:21:18;31.45;;;4.38;;
76423;SDS011;65257;52.104;4.268;2023-07-31T06:23:43;25.90;;;4.38;;
76423;SDS011;65257;52.104;4.268;2023-07-31T06:26:09;24.10;;;4.90;;
76423;SDS011;65257;52.104;4.268;2023-07-31T06:28:34;14.68;;;3.80;;
76423;SDS011;65257;52.104;4.268;2023-07-31T06:31:00;25.23;;;4.20;;
76423;SDS011;65257;52.104;4.268;2023-07-31T06:33:25;20.00;;;4.97;;
76423;SDS011;65257;52.104;4.268;2023-07-31T06:35:51;27.65;;;5.40;;
76423;SDS011;65257;52.104;4.268;2023-07-31T06:38:19;16.70;;;5.05;;
76423;SDS011;65257;52.104;4.268;2023-07-31T06:40:51;23.27;;;4.80;;
76423;SDS011;65257;52.104;4.268;2023-07-31T06:43:22;25.17;;;4.68;;
76423;SDS011;65257;52.104;4.268;2023-07-31T06:45:47;23.00;;;4.50;;
76423;SDS011;65257;52.104;4.268;2023-07-31T06:48:16;22.70;;;4.50;;
76423;SDS011;65257;52.104;4.268;2023-07-31T06:50:41;26.02;;;5.07;;
76423;SDS011;65257;52.104;4.268;2023-07-31T06:53:07;28.92;;;5.60;;
76423;SDS011;65257;52.104;4.268;2023-07-31T06:55:32;26.17;;;6.55;;
76423;SDS011;65257;52.104;4.268;2023-07-31T06:57:58;26.95;;;6.00;;
76423;SDS011;65257;52.104;4.268;2023-07-31T07:00:25;25.27;;;5.63;;
76423;SDS011;65257;52.104;4.268;2023-07-31T07:02:53;35.70;;;6.28;;
76423;SDS011;65257;52.104;4.268;2023-07-31T07:05:19;28.80;;;5.72;;
76423;SDS011;65257;52.104;4.268;2023-07-31T07:07:45;25.95;;;5.82;;
76423;SDS011;65257;52.104;4.268;2023-07-31T07:10:10;24.48;;;4.97;;
76423;SDS011;65257;52.104;4.268;2023-07-31T07:12:39;29.08;;;5.22;;
76423;SDS011;65257;52.104;4.268;2023-07-31T07:15:04;22.95;;;3.80;;
76423;SDS011;65257;52.104;4.268;2023-07-31T07:20:26;25.20;;;4.78;;
76423;SDS011;65257;52.104;4.268;2023-07-31T07:22:51;24.90;;;5.28;;
76423;SDS011;65257;52.104;4.268;2023-07-31T07:25:17;30.85;;;5.68;;
76423;SDS011;65257;52.104;4.268;2023-07-31T07:27:42;31.33;;;4.78;;
76423;SDS011;65257;52.104;4.268;2023-07-31T07:30:08;51.78;;;6.28;;
76423;SDS011;65257;52.104;4.268;2023-07-31T07:32:34;26.42;;;4.75;;
76423;SDS011;65257;52.104;4.268;2023-07-31T07:35:02;33.30;;;5.82;;
76423;SDS011;65257;52.104;4.268;2023-07-31T07:37:35;30.55;;;4.95;;
76423;SDS011;65257;52.104;4.268;2023-07-31T07:40:01;28.55;;;4.55;;
76423;SDS011;65257;52.104;4.268;2023-07-31T07:42:26;25.48;;;5.40;;
76423;SDS011;65257;52.104;4.268;2023-07-31T07:44:55;24.80;;;5.22;;
76423;SDS011;65257;52.104;4.268;2023-07-31T07:47:20;26.88;;;5.32;;
76423;SDS011;65257;52.104;4.268;2023-07-31T07:49:46;26.05;;;4.15;;
76423;SDS011;65257;52.104;4.268;2023-07-31T07:52:11;26.70;;;4.65;;
76423;SDS011;65257;52.104;4.268;2023-07-31T07:54:37;28.45;;;5.68;;
76423;SDS011;65257;52.104;4.268;2023-07-31T07:57:05;28.88;;;4.25;;
76423;SDS011;65257;52.104;4.268;2023-07-31T07:59:31;28.77;;;4.22;;
76423;SDS011;65257;52.104;4.268;2023-07-31T08:01:59;26.42;;;4.65;;
76423;SDS011;65257;52.104;4.268;2023-07-31T08:04:25;24.23;;;3.83;;
76423;SDS011;65257;52.104;4.268;2023-07-31T08:06:50;25.95;;;4.10;;
76423;SDS011;65257;52.104;4.268;2023-07-31T08:09:15;27.40;;;3.67;;
76423;SDS011;65257;52.104;4.268;2023-07-31T08:11:41;21.33;;;4.32;;
76423;SDS011;65257;52.104;4.268;2023-07-31T08:14:06;21.83;;;3.88;;
76423;SDS011;65257;52.104;4.268;2023-07-31T08:16:32;22.85;;;3.47;;
76423;SDS011;65257;52.104;4.268;2023-07-31T08:19:02;19.75;;;3.72;;
76423;SDS011;65257;52.104;4.268;2023-07-31T08:21:31;19.65;;;4.30;;
76423;SDS011;65257;52.104;4.268;2023-07-31T08:23:57;20.83;;;4.28;;
76423;SDS011;65257;52.104;4.268;2023-07-31T08:26:22;19.27;;;3.78;;
76423;SDS011;65257;52.104;4.268;2023-07-31T08:28:48;26.00;;;4.68;;
76423;SDS011;65257;52.104;4.268;2023-07-31T08:31:17;21.02;;;3.15;;
76423;SDS011;65257;52.104;4.268;2023-07-31T08:33:43;17.15;;;3.10;;
76423;SDS011;65257;52.104;4.268;2023-07-31T08:36:08;25.60;;;3.45;;
76423;SDS011;65257;52.104;4.268;2023-07-31T08:38:34;24.45;;;3.70;;
76423;SDS011;65257;52.104;4.268;2023-07-31T08:41:00;20.05;;;4.35;;
76423;SDS011;65257;52.104;4.268;2023-07-31T08:43:25;24.52;;;4.70;;
76423;SDS011;65257;52.104;4.268;2023-07-31T08:45:51;19.55;;;3.70;;
76423;SDS011;65257;52.104;4.268;2023-07-31T08:48:18;15.25;;;2.83;;
76423;SDS011;65257;52.104;4.268;2023-07-31T08:50:45;19.08;;;2.88;;
76423;SDS011;65257;52.104;4.268;2023-07-31T08:53:11;14.75;;;2.70;;
76423;SDS011;65257;52.104;4.268;2023-07-31T08:55:37;18.35;;;3.58;;
76423;SDS011;65257;52.104;4.268;2023-07-31T08:58:03;23.73;;;3.03;;
76423;SDS011;65257;52.104;4.268;2023-07-31T09:00:31;23.50;;;3.78;;
76423;SDS011;65257;52.104;4.268;2023-07-31T09:05:37;26.70;;;4.38;;
76423;SDS011;65257;52.104;4.268;2023-07-31T09:08:06;21.30;;;4.50;;
76423;SDS011;65257;52.104;4.268;2023-07-31T09:10:34;23.05;;;4.95;;
76423;SDS011;65257;52.104;4.268;2023-07-31T09:13:12;24.75;;;5.28;;
76423;SDS011;65257;52.104;4.268;2023-07-31T09:15:45;23.92;;;5.55;;
76423;SDS011;65257;52.104;4.268;2023-07-31T09:18:12;23.15;;;4.82;;
76423;SDS011;65257;52.104;4.268;2023-07-31T09:20:37;27.00;;;5.20;;
76423;SDS011;65257;52.104;4.268;2023-07-31T09:23:10;23.73;;;5.47;;
76423;SDS011;65257;52.104;4.268;2023-07-31T09:25:38;33.20;;;7.63;;
76423;SDS011;65257;52.104;4.268;2023-07-31T09:28:05;20.75;;;5.15;;
76423;SDS011;65257;52.104;4.268;2023-07-31T09:33:27;20.33;;;3.95;;
76423;SDS011;65257;52.104;4.268;2023-07-31T09:35:52;26.25;;;5.18;;
76423;SDS011;65257;52.104;4.268;2023-07-31T09:38:18;27.50;;;4.78;;
76423;SDS011;65257;52.104;4.268;2023-07-31T09:40:44;19.95;;;4.22;;
76423;SDS011;65257;52.104;4.268;2023-07-31T09:43:17;18.70;;;4.63;;
76423;SDS011;65257;52.104;4.268;2023-07-31T09:45:45;34.10;;;8.52;;
76423;SDS011;65257;52.104;4.268;2023-07-31T09:48:14;24.40;;;6.30;;
76423;SDS011;65257;52.104;4.268;2023-07-31T09:50:42;27.92;;;5.65;;
76423;SDS011;65257;52.104;4.268;2023-07-31T09:53:14;26.45;;;4.53;;
76423;SDS011;65257;52.104;4.268;2023-07-31T09:55:41;27.55;;;5.38;;
76423;SDS011;65257;52.104;4.268;2023-07-31T09:58:11;24.17;;;4.95;;
76423;SDS011;65257;52.104;4.268;2023-07-31T10:00:37;16.48;;;3.58;;
76423;SDS011;65257;52.104;4.268;2023-07-31T10:03:05;22.50;;;4.20;;
76423;SDS011;65257;52.104;4.268;2023-07-31T10:05:49;24.30;;;4.32;;
76423;SDS011;65257;52.104;4.268;2023-07-31T10:08:19;21.83;;;5.22;;
76423;SDS011;65257;52.104;4.268;2023-07-31T10:10:48;18.90;;;3.00;;
76423;SDS011;65257;52.104;4.268;2023-07-31T10:13:14;12.68;;;3.13;;
76423;SDS011;65257;52.104;4.268;2023-07-31T10:15:43;19.58;;;3.78;;
76423;SDS011;65257;52.104;4.268;2023-07-31T10:18:09;16.48;;;3.67;;
76423;SDS011;65257;52.104;4.268;2023-07-31T10:20:36;16.60;;;3.50;;
76423;SDS011;65257;52.104;4.268;2023-07-31T10:23:05;21.88;;;4.15;;
76423;SDS011;65257;52.104;4.268;2023-07-31T10:25:31;14.77;;;4.40;;
76423;SDS011;65257;52.104;4.268;2023-07-31T10:27:57;24.63;;;4.25;;
76423;SDS011;65257;52.104;4.268;2023-07-31T10:30:27;29.02;;;6.10;;
76423;SDS011;65257;52.104;4.268;2023-07-31T10:32:54;20.88;;;3.40;;
76423;SDS011;65257;52.104;4.268;2023-07-31T10:35:24;23.63;;;3.55;;
76423;SDS011;65257;52.104;4.268;2023-07-31T10:40:37;19.67;;;4.85;;
76423;SDS011;65257;52.104;4.268;2023-07-31T10:43:03;29.95;;;5.07;;
76423;SDS011;65257;52.104;4.268;2023-07-31T10:45:34;28.15;;;5.15;;
76423;SDS011;65257;52.104;4.268;2023-07-31T10:50:30;20.90;;;4.07;;
76423;SDS011;65257;52.104;4.268;2023-07-31T10:52:58;31.63;;;5.78;;
76423;SDS011;65257;52.104;4.268;2023-07-31T10:58:08;25.17;;;4.90;;
76423;SDS011;65257;52.104;4.268;2023-07-31T11:00:34;34.00;;;6.60;;
76423;SDS011;65257;52.104;4.268;2023-07-31T11:03:06;19.55;;;4.72;;
76423;SDS011;65257;52.104;4.268;2023-07-31T11:08:10;23.42;;;4.70;;
76423;SDS011;65257;52.104;4.268;2023-07-31T11:10:50;23.08;;;4.88;;
76423;SDS011;65257;52.104;4.268;2023-07-31T11:13:28;21.17;;;3.80;;
76423;SDS011;65257;52.104;4.268;2023-07-31T11:15:55;24.80;;;5.85;;
76423;SDS011;65257;52.104;4.268;2023-07-31T11:18:20;24.67;;;4.78;;
76423;SDS011;65257;52.104;4.268;2023-07-31T11:20:45;27.25;;;5.85;;
76423;SDS011;65257;52.104;4.268;2023-07-31T11:23:11;23.65;;;5.43;;
76423;SDS011;65257;52.104;4.268;2023-07-31T11:25:43;21.80;;;5.20;;
76423;SDS011;65257;52.104;4.268;2023-07-31T11:28:10;24.52;;;6.35;;
76423;SDS011;65257;52.104;4.268;2023-07-31T11:30:37;29.35;;;4.57;;
76423;SDS011;65257;52.104;4.268;2023-07-31T11:33:06;21.33;;;3.75;;
76423;SDS011;65257;52.104;4.268;2023-07-31T11:35:41;27.48;;;5.55;;
76423;SDS011;65257;52.104;4.268;2023-07-31T11:38:10;28.33;;;4.75;;
76423;SDS011;65257;52.104;4.268;2023-07-31T11:40:43;25.48;;;4.32;;
76423;SDS011;65257;52.104;4.268;2023-07-31T11:43:09;16.23;;;4.18;;
76423;SDS011;65257;52.104;4.268;2023-07-31T11:45:42;22.80;;;3.75;;
76423;SDS011;65257;52.104;4.268;2023-07-31T11:48:17;20.27;;;3.95;;
76423;SDS011;65257;52.104;4.268;2023-07-31T11:50:47;21.27;;;4.28;;
76423;SDS011;65257;52.104;4.268;2023-07-31T11:53:16;23.55;;;4.45;;
76423;SDS011;65257;52.104;4.268;2023-07-31T11:55:44;28.52;;;4.47;;
76423;SDS011;65257;52.104;4.268;2023-07-31T11:58:16;23.42;;;5.25;;
76423;SDS011;65257;52.104;4.268;2023-07-31T12:00:46;25.27;;;6.15;;
76423;SDS011;65257;52.104;4.268;2023-07-31T12:03:12;25.85;;;4.65;;
76423;SDS011;65257;52.104;4.268;2023-07-31T12:05:38;21.70;;;4.82;;
76423;SDS011;65257;52.104;4.268;2023-07-31T12:08:10;26.75;;;3.95;;
76423;SDS011;65257;52.104;4.268;2023-07-31T12:10:41;20.02;;;5.03;;
76423;SDS011;65257;52.104;4.268;2023-07-31T12:13:10;22.67;;;4.75;;
76423;SDS011;65257;52.104;4.268;2023-07-31T12:15:44;17.58;;;3.53;;
76423;SDS011;65257;52.104;4.268;2023-07-31T12:18:11;24.08;;;4.72;;
76423;SDS011;65257;52.104;4.268;2023-07-31T12:20:42;23.90;;;3.90;;
76423;SDS011;65257;52.104;4.268;2023-07-31T12:23:12;21.77;;;3.55;;
76423;SDS011;65257;52.104;4.268;2023-07-31T12:28:06;21.60;;;2.45;;
76423;SDS011;65257;52.104;4.268;2023-07-31T12:30:37;13.50;;;2.22;;
76423;SDS011;65257;52.104;4.268;2023-07-31T12:33:07;15.18;;;2.47;;
76423;SDS011;65257;52.104;4.268;2023-07-31T12:35:40;16.17;;;2.60;;
76423;SDS011;65257;52.104;4.268;2023-07-31T12:38:14;17.25;;;2.55;;
76423;SDS011;65257;52.104;4.268;2023-07-31T12:40:40;34.53;;;3.42;;
76423;SDS011;65257;52.104;4.268;2023-07-31T12:43:07;18.58;;;3.38;;
76423;SDS011;65257;52.104;4.268;2023-07-31T12:45:39;27.10;;;2.72;;
76423;SDS011;65257;52.104;4.268;2023-07-31T12:48:04;18.40;;;2.90;;
76423;SDS011;65257;52.104;4.268;2023-07-31T12:50:30;15.93;;;1.83;;
76423;SDS011;65257;52.104;4.268;2023-07-31T12:52:58;13.90;;;2.47;;
76423;SDS011;65257;52.104;4.268;2023-07-31T12:55:27;14.07;;;2.28;;
76423;SDS011;65257;52.104;4.268;2023-07-31T12:57:52;13.05;;;1.88;;
76423;SDS011;65257;52.104;4.268;2023-07-31T13:00:17;17.35;;;2.42;;
76423;SDS011;65257;52.104;4.268;2023-07-31T13:02:43;12.75;;;1.80;;
76423;SDS011;65257;52.104;4.268;2023-07-31T13:05:09;9.85;;;2.00;;
76423;SDS011;65257;52.104;4.268;2023-07-31T13:07:37;11.00;;;1.77;;
76423;SDS011;65257;52.104;4.268;2023-07-31T13:10:06;14.73;;;2.35;;
76423;SDS011;65257;52.104;4.268;2023-07-31T13:12:44;11.95;;;2.78;;
76423;SDS011;65257;52.104;4.268;2023-07-31T13:15:09;12.13;;;3.47;;
76423;SDS011;65257;52.104;4.268;2023-07-31T13:17:35;13.85;;;3.28;;
76423;SDS011;65257;52.104;4.268;2023-07-31T13:20:05;14.55;;;3.40;;
76423;SDS011;65257;52.104;4.268;2023-07-31T13:22:32;17.52;;;3.03;;
76423;SDS011;65257;52.104;4.268;2023-07-31T13:24:58;12.75;;;2.90;;
76423;SDS011;65257;52.104;4.268;2023-07-31T13:27:24;12.38;;;3.25;;
76423;SDS011;65257;52.104;4.268;2023-07-31T13:29:52;10.57;;;2.95;;
76423;SDS011;65257;52.104;4.268;2023-07-31T13:32:21;11.38;;;2.85;;
76423;SDS011;65257;52.104;4.268;2023-07-31T13:34:46;15.95;;;2.47;;
76423;SDS011;65257;52.104;4.268;2023-07-31T13:37:13;13.80;;;2.40;;
76423;SDS011;65257;52.104;4.268;2023-07-31T13:39:38;16.52;;;3.05;;
76423;SDS011;65257;52.104;4.268;2023-07-31T13:42:04;16.08;;;2.85;;
76423;SDS011;65257;52.104;4.268;2023-07-31T13:44:39;20.92;;;3.45;;
76423;SDS011;65257;52.104;4.268;2023-07-31T13:47:06;15.57;;;3.30;;
76423;SDS011;65257;52.104;4.268;2023-07-31T13:49:33;15.50;;;3.65;;
76423;SDS011;65257;52.104;4.268;2023-07-31T13:51:59;15.35;;;2.90;;
76423;SDS011;65257;52.104;4.268;2023-07-31T13:54:25;12.57;;;2.83;;
76423;SDS011;65257;52.104;4.268;2023-07-31T13:56:53;13.55;;;2.88;;
76423;SDS011;65257;52.104;4.268;2023-07-31T13:59:22;15.38;;;2.35;;
76423;SDS011;65257;52.104;4.268;2023-07-31T14:01:47;14.85;;;2.88;;
76423;SDS011;65257;52.104;4.268;2023-07-31T14:04:16;14.05;;;2.50;;
76423;SDS011;65257;52.104;4.268;2023-07-31T14:06:42;11.50;;;2.92;;
76423;SDS011;65257;52.104;4.268;2023-07-31T14:09:14;14.80;;;2.53;;
76423;SDS011;65257;52.104;4.268;2023-07-31T14:11:43;11.27;;;1.75;;
76423;SDS011;65257;52.104;4.268;2023-07-31T14:14:11;11.85;;;2.50;;
76423;SDS011;65257;52.104;4.268;2023-07-31T14:16:37;12.52;;;2.00;;
76423;SDS011;65257;52.104;4.268;2023-07-31T14:19:03;14.18;;;2.65;;
76423;SDS011;65257;52.104;4.268;2023-07-31T14:21:29;12.23;;;2.40;;
76423;SDS011;65257;52.104;4.268;2023-07-31T14:23:54;19.00;;;3.88;;
76423;SDS011;65257;52.104;4.268;2023-07-31T14:26:19;13.13;;;2.28;;
76423;SDS011;65257;52.104;4.268;2023-07-31T14:28:45;8.57;;;1.75;;
76423;SDS011;65257;52.104;4.268;2023-07-31T14:31:10;12.95;;;2.00;;
76423;SDS011;65257;52.104;4.268;2023-07-31T14:33:35;7.97;;;1.70;;
76423;SDS011;65257;52.104;4.268;2023-07-31T14:36:01;10.45;;;1.75;;
76423;SDS011;65257;52.104;4.268;2023-07-31T14:38:28;8.40;;;2.00;;
76423;SDS011;65257;52.104;4.268;2023-07-31T14:40:53;10.75;;;1.70;;
76423;SDS011;65257;52.104;4.268;2023-07-31T14:43:18;10.13;;;1.40;;
76423;SDS011;65257;52.104;4.268;2023-07-31T14:45:44;21.58;;;2.42;;
76423;SDS011;65257;52.104;4.268;2023-07-31T14:48:11;10.10;;;2.10;;
76423;SDS011;65257;52.104;4.268;2023-07-31T14:50:36;9.35;;;1.50;;
76423;SDS011;65257;52.104;4.268;2023-07-31T14:53:02;8.63;;;1.50;;
76423;SDS011;65257;52.104;4.268;2023-07-31T14:55:28;12.13;;;1.50;;
76423;SDS011;65257;52.104;4.268;2023-07-31T14:57:56;10.68;;;2.20;;
76423;SDS011;65257;52.104;4.268;2023-07-31T15:00:21;14.60;;;2.65;;
76423;SDS011;65257;52.104;4.268;2023-07-31T15:02:53;11.82;;;1.50;;
76423;SDS011;65257;52.104;4.268;2023-07-31T15:05:19;11.77;;;2.08;;
76423;SDS011;65257;52.104;4.268;2023-07-31T15:07:50;12.45;;;2.08;;